Portada
METAR-TAF:

METAR-TAF

Aeroports :

Barrow Island, Austràlia

latitud: 20-51-57S, longitud: 115-24-17E, altitud: 8 m

Observació

L'informe es va fer fa 1 hora i 3 minuts, a les 16:00 UTC
Vent 24 kt del Sud
Temperatura 26°C
Humitat 54%
Pressió 1013 hPa

METAR: YBWX 191600Z AUTO 19024KT //// // ////// 26/16 Q1013

Hora: 01:03 (17:03 UTC)


TAF: manca

Observacions i pronòstics meteorològics de més de 4000 aeroports (METAR i TAF).

Les estacions disponibles són els punts grocs i vermells al mapa.

Posi el ratolí al punt desitjat per veure el nom de l'estació.

Feu clic per veure les observacions i els pronòstics meteorològics.

Per canviar el mapa: feu clic els botons verds amb una creu de color negre per apropar; al botó verd amb un guió per allunyar la imatge; o en les fletxes verdes per a mapes adjacents.


METAR-TAF: